Time;durP1;ratioP1;P1;durP2;ratioP2;P2;SDS_P1;SDS_P2;PMS_P1;PMS_P2;Temp;Humidity;BMP_temperature;BMP_pressure;BME280_temperature;BME280_humidity;BME280_pressure;Samples;Min_cycle;Max_cycle;Signal;HPM_P1;HPM_P2
2022/09/01 00:01:43;;;;;;;18.02;10.13;;;;;;;17.69;69.64;93785.59;5004498;28;20022;-79
2022/09/01 00:04:12;;;;;;;13.43;10.38;;;;;;;17.67;69.37;93777.88;5004252;28;20208;-79
2022/09/01 00:06:39;;;;;;;22.98;10.10;;;;;;;17.65;69.36;93775.53;5004170;28;20030;-79
2022/09/01 00:09:09;;;;;;;16.73;10.73;;;;;;;17.62;69.80;93778.94;5004155;28;20038;-79
2022/09/01 00:11:36;;;;;;;13.95;9.73;;;;;;;17.64;69.79;93781.28;5002823;28;20065;-79
2022/09/01 00:14:04;;;;;;;14.75;10.32;;;;;;;17.58;69.84;93763.84;5004087;28;20030;-79
2022/09/01 00:16:30;;;;;;;15.65;10.43;;;;;;;17.56;69.46;93771.50;5004126;28;20272;-80
2022/09/01 00:18:55;;;;;;;14.65;10.38;;;;;;;17.54;69.55;93765.72;5003832;28;20026;-78
2022/09/01 00:21:37;;;;;;;18.85;9.68;;;;;;;17.48;69.87;93765.22;5003974;28;20034;-78
2022/09/01 00:24:03;;;;;;;15.70;10.68;;;;;;;17.48;70.10;93753.66;5003954;28;20030;-79
2022/09/01 00:26:30;;;;;;;16.63;10.50;;;;;;;17.45;70.18;93749.78;5003788;28;20113;-79
2022/09/01 00:28:55;;;;;;;16.85;10.23;;;;;;;17.42;70.29;93759.38;5003786;28;20026;-78
2022/09/01 00:31:22;;;;;;;23.42;10.73;;;;;;;17.42;70.29;93764.75;5003303;28;20309;-78
2022/09/01 00:33:49;;;;;;;19.17;12.07;;;;;;;17.39;70.66;93756.59;5003546;28;20056;-78
2022/09/01 00:36:16;;;;;;;21.23;10.85;;;;;;;17.37;70.71;93765.03;5003897;28;20054;-78
2022/09/01 00:38:41;;;;;;;20.05;11.50;;;;;;;17.36;70.42;93770.78;5003636;28;20030;-77
2022/09/01 00:41:07;;;;;;;18.02;11.50;;;;;;;17.34;70.71;93776.53;5003659;28;20068;-78
2022/09/01 00:43:43;;;;;;;16.45;10.68;;;;;;;17.32;70.81;93778.81;5003649;28;20041;-79
2022/09/01 00:46:13;;;;;;;17.58;12.32;;;;;;;17.30;70.57;93778.41;5003763;28;20080;-78
2022/09/01 00:48:38;;;;;;;17.63;12.95;;;;;;;17.28;71.69;93786.06;5003369;28;20022;-78
2022/09/01 00:51:08;;;;;;;24.15;14.02;;;;;;;17.21;72.65;93777.84;5003414;28;20080;-79
2022/09/01 00:53:35;;;;;;;20.77;14.15;;;;;;;17.14;73.22;93772.31;5003506;28;20044;-78
2022/09/01 00:56:02;;;;;;;21.17;14.43;;;;;;;17.11;73.95;93778.41;5003629;28;20260;-79
2022/09/01 00:58:28;;;;;;;23.38;15.10;;;;;;;17.06;74.06;93779.50;5018671;28;20022;-78
2022/09/01 01:00:54;;;;;;;19.90;13.35;;;;;;;17.04;74.26;93777.13;5003647;28;20271;-80
2022/09/01 01:03:20;;;;;;;22.27;15.02;;;;;;;17.01;74.28;93769.75;5003423;28;20069;-79
2022/09/01 01:05:53;;;;;;;20.67;13.63;;;;;;;17.01;74.15;93775.16;5003517;28;20029;-79
2022/09/01 01:08:32;;;;;;;23.70;14.23;;;;;;;17.02;74.44;93781.34;5003390;28;20037;-80
2022/09/01 01:11:16;;;;;;;22.48;13.55;;;;;;;17.03;74.10;93789.03;5003255;28;20022;-80
2022/09/01 01:14:11;;;;;;;22.88;14.50;;;;;;;17.00;74.22;93788.97;5003225;28;20097;-79
2022/09/01 01:16:40;;;;;;;23.55;13.23;;;;;;;16.94;74.58;93795.78;5003240;28;20019;-79
2022/09/01 01:23:00;;;;;;;22.30;14.10;;;;;;;16.87;75.16;93790.25;5018423;28;20034;-79
2022/09/01 01:24:41;;;;;;;18.85;14.10;;;;;;;16.86;74.98;93788.69;5003234;28;20064;-78
2022/09/01 01:27:06;;;;;;;19.58;13.90;;;;;;;16.82;75.17;93794.78;5003492;28;20026;-79
2022/09/01 01:29:36;;;;;;;18.25;13.82;;;;;;;16.83;75.24;93788.28;5003121;28;20022;-79
2022/09/01 01:32:04;;;;;;;22.48;14.38;;;;;;;16.81;75.24;93792.44;5003113;28;20305;-79
2022/09/01 01:34:30;;;;;;;19.05;14.27;;;;;;;16.81;75.61;93787.06;5003108;28;20041;-78
2022/09/01 01:36:58;;;;;;;23.90;14.18;;;;;;;16.83;75.46;93790.97;5002951;28;20026;-78
2022/09/01 01:39:24;;;;;;;19.48;14.38;;;;;;;16.83;75.59;93787.47;5003191;28;20049;-78
2022/09/01 01:41:51;;;;;;;31.48;16.25;;;;;;;16.83;75.67;93790.16;5003151;28;20018;-79
2022/09/01 01:44:19;;;;;;;20.63;14.05;;;;;;;16.85;75.55;93787.91;5005992;28;20045;-78
2022/09/01 01:46:51;;;;;;;24.77;14.13;;;;;;;16.84;75.60;93797.91;5006875;28;20367;-79
2022/09/01 01:49:19;;;;;;;28.60;14.60;;;;;;;16.85;75.31;93795.97;5007083;28;20026;-79
2022/09/01 01:51:46;;;;;;;21.20;14.77;;;;;;;16.87;75.33;93796.41;5007088;28;20030;-78
2022/09/01 01:54:13;;;;;;;23.85;15.50;;;;;;;16.87;75.18;93799.09;5006711;28;20026;-79
2022/09/01 01:56:40;;;;;;;18.20;14.23;;;;;;;16.86;75.33;93805.63;5006716;28;20022;-79
2022/09/01 01:59:08;;;;;;;20.23;14.07;;;;;;;16.87;75.03;93806.41;5006598;28;20038;-79
2022/09/01 02:01:34;;;;;;;27.85;15.20;;;;;;;16.85;75.28;93804.06;5006556;28;20256;-79
2022/09/01 02:04:03;;;;;;;22.48;14.23;;;;;;;16.83;75.66;93811.69;5006640;28;20029;-78
2022/09/01 02:06:33;;;;;;;20.83;14.05;;;;;;;16.84;75.54;93818.66;5006545;28;20029;-78
2022/09/01 02:09:02;;;;;;;20.08;14.70;;;;;;;16.83;75.60;93804.44;5007040;28;20322;-79
2022/09/01 02:11:32;;;;;;;21.65;14.27;;;;;;;16.86;75.44;93810.25;5006359;28;21454;-79
2022/09/01 02:13:59;;;;;;;28.83;14.93;;;;;;;16.88;75.42;93814.13;5005072;28;20026;-79
2022/09/01 02:16:28;;;;;;;24.40;14.57;;;;;;;16.87;75.42;93817.94;5006305;28;20026;-79
2022/09/01 02:18:54;;;;;;;21.27;15.88;;;;;;;16.84;75.49;93807.91;5006104;28;20320;-79
2022/09/01 02:21:22;;;;;;;33.63;17.77;;;;;;;16.82;75.79;93812.84;5006306;28;20026;-80
2022/09/01 02:24:01;;;;;;;32.53;17.92;;;;;;;16.80;76.11;93805.09;5006090;28;20026;-80
2022/09/01 02:26:30;;;;;;;28.55;18.17;;;;;;;16.82;76.22;93807.47;5006048;28;20034;-80
2022/09/01 02:29:03;;;;;;;31.17;18.42;;;;;;;16.81;76.16;93812.06;5005978;28;20022;-80
2022/09/01 02:31:30;;;;;;;26.27;19.45;;;;;;;16.79;76.22;93808.13;5006126;28;20095;-80
2022/09/01 02:33:57;;;;;;;33.78;17.52;;;;;;;16.80;76.30;93809.69;5006139;28;20065;-81
2022/09/01 02:36:24;;;;;;;31.52;20.10;;;;;;;16.78;76.47;93799.28;5006175;28;20041;-81
2022/09/01 02:38:50;;;;;;;28.33;18.75;;;;;;;16.76;76.11;93796.16;5006095;28;20022;-80
2022/09/01 02:41:19;;;;;;;30.35;18.13;;;;;;;16.78;76.00;93801.19;5006082;28;20026;-80
2022/09/01 02:43:45;;;;;;;29.10;18.35;;;;;;;16.79;75.85;93794.66;5006156;28;20026;-81
2022/09/01 02:46:12;;;;;;;29.75;19.52;;;;;;;16.73;75.89;93790.69;5005883;28;20065;-81
2022/09/01 02:48:41;;;;;;;26.70;18.30;;;;;;;16.69;76.00;93795.22;5005731;28;20057;-80
2022/09/01 02:51:13;;;;;;;29.35;18.00;;;;;;;16.71;75.83;93792.97;5006008;28;20044;-82
2022/09/01 02:53:41;;;;;;;31.48;17.10;;;;;;;16.70;76.11;93792.19;5005551;28;20044;-82
2022/09/01 02:56:10;;;;;;;27.15;17.23;;;;;;;16.67;75.80;93800.19;5004755;28;20089;-77
2022/09/01 02:58:44;;;;;;;25.17;17.75;;;;;;;16.64;75.79;93794.38;5005764;28;20024;-76
2022/09/01 03:01:31;;;;;;;24.83;17.05;;;;;;;16.63;75.40;93787.44;5005673;28;20018;-77
2022/09/01 03:04:02;;;;;;;23.05;15.27;;;;;;;16.64;75.36;93794.38;5005674;28;20025;-77
2022/09/01 03:06:32;;;;;;;21.92;13.38;;;;;;;16.63;75.07;93800.91;5005703;28;20073;-77
2022/09/01 03:08:59;;;;;;;26.70;14.48;;;;;;;16.63;74.87;93798.22;5005597;28;20030;-77
2022/09/01 03:11:28;;;;;;;19.63;14.10;;;;;;;16.60;75.09;93798.13;5005707;28;20019;-78
2022/09/01 03:13:53;;;;;;;21.83;13.85;;;;;;;16.60;74.90;93788.16;5005454;28;20034;-78
2022/09/01 03:16:21;;;;;;;18.33;13.35;;;;;;;16.59;74.45;93791.22;5005280;28;20081;-79
2022/09/01 03:18:46;;;;;;;17.00;12.65;;;;;;;16.56;74.59;93787.28;5005305;28;20045;-77
2022/09/01 03:21:15;;;;;;;18.50;12.55;;;;;;;16.54;74.69;93792.25;5005554;28;20030;-78
2022/09/01 03:23:43;;;;;;;21.27;12.63;;;;;;;16.52;74.79;93782.97;5005084;28;20037;-78
2022/09/01 03:26:08;;;;;;;17.05;12.18;;;;;;;16.53;74.48;93793.38;5005028;28;20034;-78
2022/09/01 03:28:34;;;;;;;16.83;12.13;;;;;;;16.49;74.46;93792.53;5004937;28;20040;-81
2022/09/01 03:30:59;;;;;;;20.50;13.65;;;;;;;16.47;74.67;93788.63;5004887;28;20037;-81
2022/09/01 03:33:26;;;;;;;30.08;15.07;;;;;;;16.45;74.76;93797.84;5005033;28;20026;-80
2022/09/01 03:35:53;;;;;;;22.90;15.23;;;;;;;16.41;74.77;93796.97;5005074;28;20290;-78
2022/09/01 03:38:23;;;;;;;20.17;13.18;;;;;;;16.38;75.15;93796.88;5005127;28;20205;-79
2022/09/01 03:40:57;;;;;;;25.40;13.75;;;;;;;16.39;75.07;93790.38;5004908;28;20026;-78
2022/09/01 03:43:26;;;;;;;22.05;13.90;;;;;;;16.33;75.30;93794.47;5004929;28;20061;-78
2022/09/01 03:45:54;;;;;;;23.85;14.55;;;;;;;16.33;75.59;93803.31;5004682;28;20018;-78
2022/09/01 03:48:21;;;;;;;21.30;12.90;;;;;;;16.31;75.61;93804.81;5004540;28;20022;-78
2022/09/01 03:50:48;;;;;;;20.30;13.52;;;;;;;16.30;75.76;93795.16;5004672;28;20029;-78
2022/09/01 03:53:18;;;;;;;19.48;12.32;;;;;;;16.29;75.17;93799.00;5004686;28;20312;-79
2022/09/01 03:55:46;;;;;;;21.35;12.40;;;;;;;16.29;75.22;93790.94;5004526;28;20029;-79
2022/09/01 03:58:17;;;;;;;21.73;14.68;;;;;;;16.27;74.94;93795.88;5004503;28;20057;-80
2022/09/01 04:00:45;;;;;;;21.08;12.57;;;;;;;16.28;75.04;93797.44;5004572;28;20317;-80
2022/09/01 04:03:12;;;;;;;19.40;12.23;;;;;;;16.28;75.04;93795.50;5004335;28;20375;-80
2022/09/01 04:05:43;;;;;;;21.40;12.57;;;;;;;16.32;75.25;93792.91;5003974;28;20045;-80
2022/09/01 04:08:11;;;;;;;17.17;12.30;;;;;;;16.35;75.02;93802.97;5004491;28;20080;-79
2022/09/01 04:10:48;;;;;;;19.67;12.85;;;;;;;16.31;75.23;93800.22;5004247;28;20030;-79
2022/09/01 04:13:15;;;;;;;21.17;13.93;;;;;;;16.29;75.10;93801.69;5004264;28;20022;-79
2022/09/01 04:15:41;;;;;;;20.80;15.07;;;;;;;16.27;75.53;93807.41;5004106;28;20026;-79
2022/09/01 04:18:11;;;;;;;24.13;17.67;;;;;;;16.30;76.63;93801.31;5004017;28;20396;-79
2022/09/01 04:20:49;;;;;;;25.98;17.27;;;;;;;16.28;76.75;93798.19;5004076;28;20026;-81
2022/09/01 04:23:25;;;;;;;28.73;18.67;;;;;;;16.18;77.45;93810.31;5004089;28;20018;-79
2022/09/01 04:25:52;;;;;;;23.55;17.30;;;;;;;16.17;77.79;93797.19;5003735;28;20105;-79
2022/09/01 04:28:23;;;;;;;27.42;17.25;;;;;;;16.18;77.77;93791.47;5019035;28;20093;-78
2022/09/01 04:30:55;;;;;;;28.00;18.52;;;;;;;16.23;77.92;93798.50;5003768;28;20355;-78
2022/09/01 04:33:26;;;;;;;24.77;17.05;;;;;;;16.25;77.88;93786.25;5003785;28;20050;-79
2022/09/01 04:35:55;;;;;;;26.42;19.05;;;;;;;16.29;77.98;93788.25;5003676;28;20034;-77
2022/09/01 04:38:23;;;;;;;26.40;17.95;;;;;;;16.35;77.87;93793.00;5003509;28;20228;-78
2022/09/01 04:40:49;;;;;;;29.70;17.95;;;;;;;16.41;77.59;93793.50;5003390;28;20026;-77
2022/09/01 04:43:15;;;;;;;39.22;17.52;;;;;;;16.42;77.49;93795.84;5003706;28;20029;-77
2022/09/01 04:45:41;;;;;;;30.45;18.65;;;;;;;16.46;77.42;93798.59;5003255;28;20022;-78
2022/09/01 04:48:07;;;;;;;28.77;18.67;;;;;;;16.45;77.67;93797.06;5003583;28;20337;-78
2022/09/01 04:50:33;;;;;;;32.55;17.75;;;;;;;16.48;77.67;93798.25;5003422;28;20030;-83
2022/09/01 04:53:04;;;;;;;31.33;17.35;;;;;;;16.49;77.12;93797.91;5003293;28;20048;-83
2022/09/01 04:55:30;;;;;;;32.33;16.27;;;;;;;16.54;77.02;93788.78;5003423;28;20043;-83
2022/09/01 04:57:58;;;;;;;25.38;16.73;;;;;;;16.58;76.70;93793.09;5003442;28;20026;-81
2022/09/01 05:00:25;;;;;;;25.48;15.15;;;;;;;16.64;76.57;93797.06;5003448;28;20022;-82
2022/09/01 05:02:54;;;;;;;30.42;17.23;;;;;;;16.71;76.87;93792.97;5003636;28;20060;-81
2022/09/01 05:05:21;;;;;;;25.27;17.42;;;;;;;16.75;76.52;93788.44;5003520;28;20041;-82
2022/09/01 05:07:54;;;;;;;29.13;17.67;;;;;;;16.77;76.25;93792.34;5003535;28;20261;-82
2022/09/01 05:10:21;;;;;;;36.80;18.20;;;;;;;16.84;75.99;93791.75;5003842;28;20061;-81
2022/09/01 05:12:47;;;;;;;27.20;17.15;;;;;;;16.84;75.53;93799.81;5019236;28;20034;-80
2022/09/01 05:15:14;;;;;;;25.35;18.02;;;;;;;16.89;75.70;93798.75;5003467;28;20089;-80
2022/09/01 05:17:40;;;;;;;36.35;17.83;;;;;;;16.92;75.55;93790.75;5003348;28;20033;-83
2022/09/01 05:20:06;;;;;;;33.15;18.00;;;;;;;16.96;75.96;93783.53;5003091;28;20034;-81
2022/09/01 05:22:32;;;;;;;28.25;17.63;;;;;;;16.95;76.13;93784.66;5018314;28;20053;-81
2022/09/01 05:25:02;;;;;;;27.73;16.98;;;;;;;17.02;75.52;93784.78;5003063;28;20022;-81
2022/09/01 05:27:28;;;;;;;29.75;17.15;;;;;;;17.09;74.90;93791.44;5002947;28;20026;-83
2022/09/01 05:29:53;;;;;;;23.33;15.93;;;;;;;17.20;74.46;93784.38;5002939;28;20097;-82
2022/09/01 05:32:20;;;;;;;24.48;16.25;;;;;;;17.32;73.90;93786.91;5002983;28;20079;-82
2022/09/01 05:34:46;;;;;;;29.08;15.45;;;;;;;17.44;73.68;93784.03;5003136;28;20041;-82
2022/09/01 05:37:13;;;;;;;25.98;14.85;;;;;;;17.55;73.45;93780.75;5002651;28;20026;-82
2022/09/01 05:39:39;;;;;;;22.85;15.77;;;;;;;17.68;72.94;93784.81;5002742;28;20038;-81
2022/09/01 05:42:08;;;;;;;23.20;16.30;;;;;;;17.67;72.43;93788.66;5002959;28;20178;-82
2022/09/01 05:44:43;;;;;;;27.20;16.50;;;;;;;17.74;71.91;93782.59;5003105;28;20210;-81
2022/09/01 05:47:11;;;;;;;20.85;13.65;;;;;;;17.77;71.41;93782.66;5002781;28;20054;-82
2022/09/01 05:49:38;;;;;;;24.83;13.23;;;;;;;17.83;71.27;93778.56;5002925;28;20309;-83
2022/09/01 05:52:04;;;;;;;25.40;13.38;;;;;;;17.92;71.03;93780.22;5003249;28;20085;-81
2022/09/01 05:54:31;;;;;;;25.42;13.80;;;;;;;18.02;70.49;93785.00;5002843;28;20324;-82
2022/09/01 05:56:57;;;;;;;21.40;12.85;;;;;;;18.07;70.14;93790.09;5003754;28;20022;-83
2022/09/01 05:59:24;;;;;;;25.85;15.02;;;;;;;18.10;70.68;93794.00;5002733;28;20034;-81
2022/09/01 06:02:08;;;;;;;21.17;13.98;;;;;;;18.12;71.09;93797.13;5002891;28;20038;-81
2022/09/01 06:04:34;;;;;;;24.75;15.60;;;;;;;18.16;71.05;93787.16;5003179;28;20033;-82
2022/09/01 06:07:00;;;;;;;28.98;16.27;;;;;;;18.15;70.97;93786.34;5003165;28;20026;-80
2022/09/01 06:09:26;;;;;;;26.58;18.10;;;;;;;18.22;70.54;93785.72;5002993;28;20077;-81
2022/09/01 06:11:54;;;;;;;23.65;16.08;;;;;;;18.31;69.97;93782.75;5002837;28;20026;-82
2022/09/01 06:14:19;;;;;;;23.27;16.17;;;;;;;18.29;70.39;93785.03;5002916;28;20026;-81
2022/09/01 06:19:29;;;;;;;24.42;15.70;;;;;;;18.35;70.58;93772.78;5002596;28;20080;-78
2022/09/01 06:21:55;;;;;;;24.13;15.63;;;;;;;18.41;69.91;93765.91;5002608;28;20030;-78
2022/09/01 06:24:21;;;;;;;35.25;15.68;;;;;;;18.50;69.66;93773.75;5002574;28;20046;-81
2022/09/01 06:26:46;;;;;;;24.77;16.08;;;;;;;18.58;69.48;93781.59;5002553;28;20026;-74
2022/09/01 06:29:14;;;;;;;19.40;14.05;;;;;;;18.68;68.91;93773.97;5002403;28;20156;-74
2022/09/01 06:31:39;;;;;;;23.02;14.00;;;;;;;18.73;68.48;93771.75;5005497;28;20056;-73
2022/09/01 06:34:07;;;;;;;30.98;13.82;;;;;;;18.78;67.92;93779.50;5004689;28;20071;-73
2022/09/01 06:36:36;;;;;;;29.15;13.88;;;;;;;18.80;67.77;93773.78;5005989;28;20022;-74
2022/09/01 06:39:02;;;;;;;19.17;12.27;;;;;;;18.81;67.79;93772.66;5005638;28;20309;-74
2022/09/01 06:41:30;;;;;;;31.92;14.88;;;;;;;18.87;68.57;93776.59;5005906;28;20054;-73
2022/09/01 06:43:56;;;;;;;20.98;13.52;;;;;;;18.95;67.80;93774.72;5005938;28;20030;-73
2022/09/01 06:46:24;;;;;;;28.65;14.45;;;;;;;18.99;67.03;93770.94;5005589;28;20038;-75
2022/09/01 06:48:50;;;;;;;26.85;13.65;;;;;;;19.00;67.06;93771.72;5005758;28;20030;-76
2022/09/01 06:51:19;;;;;;;22.02;13.85;;;;;;;19.14;66.07;93765.69;5005907;28;20030;-73
2022/09/01 06:53:50;;;;;;;25.15;14.45;;;;;;;19.30;65.83;93762.78;5005637;28;20077;-72
2022/09/01 06:56:17;;;;;;;24.08;13.63;;;;;;;19.40;65.13;93770.22;5005803;28;20033;-72
2022/09/01 06:58:47;;;;;;;31.33;15.07;;;;;;;19.43;65.31;93769.47;5020989;28;20041;-72
2022/09/01 07:01:14;;;;;;;19.48;13.45;;;;;;;19.51;65.29;93770.31;5005403;28;20026;-71
2022/09/01 07:03:41;;;;;;;26.35;15.57;;;;;;;19.40;66.39;93781.81;5005519;28;20022;-73
2022/09/01 07:06:08;;;;;;;32.53;16.70;;;;;;;19.43;67.02;93772.94;5005336;28;20034;-73
2022/09/01 07:08:38;;;;;;;29.90;17.17;;;;;;;19.52;66.66;93774.56;5005362;28;20026;-73
2022/09/01 07:11:08;;;;;;;27.52;16.73;;;;;;;19.59;65.47;93771.94;5005148;28;20308;-74
2022/09/01 07:13:34;;;;;;;30.77;16.85;;;;;;;19.64;65.88;93768.88;5005325;28;20037;-71
2022/09/01 07:16:03;;;;;;;38.13;17.35;;;;;;;19.60;66.87;93770.78;5005190;28;20037;-74
2022/09/01 07:18:30;;;;;;;34.47;18.92;;;;;;;19.62;66.37;93773.88;5004927;28;20046;-71
2022/09/01 07:20:55;;;;;;;26.83;16.73;;;;;;;19.62;66.55;93771.97;5005045;28;20311;-72
2022/09/01 07:23:22;;;;;;;43.10;17.15;;;;;;;19.69;66.59;93765.84;5005099;28;20019;-72
2022/09/01 07:25:53;;;;;;;34.47;18.10;;;;;;;19.73;66.50;93776.72;5005031;28;20057;-71
2022/09/01 07:28:22;;;;;;;30.90;18.00;;;;;;;19.87;65.85;93776.09;5020062;28;20324;-73
2022/09/01 07:30:51;;;;;;;30.23;17.25;;;;;;;19.94;66.68;93770.72;5004873;28;20022;-72
2022/09/01 07:33:22;;;;;;;37.38;19.05;;;;;;;19.95;66.14;93772.28;5004858;28;20252;-72
2022/09/01 07:35:48;;;;;;;39.70;20.58;;;;;;;19.89;66.29;93771.09;5004735;28;20022;-72
2022/09/01 07:38:14;;;;;;;32.53;21.20;;;;;;;19.88;66.16;93769.50;5004834;28;20034;-72
2022/09/01 07:40:41;;;;;;;37.35;18.88;;;;;;;19.89;66.96;93773.78;5004305;28;20030;-72
2022/09/01 07:43:14;;;;;;;36.42;19.27;;;;;;;19.94;66.44;93774.19;5004767;28;20321;-74
2022/09/01 07:45:45;;;;;;;36.88;17.45;;;;;;;20.00;65.99;93769.22;5004584;28;20364;-73
2022/09/01 07:48:13;;;;;;;36.05;21.08;;;;;;;20.04;65.98;93770.78;5004630;28;20049;-74
2022/09/01 07:50:46;;;;;;;40.35;19.85;;;;;;;20.12;66.23;93778.97;5004549;28;20053;-74
2022/09/01 07:53:15;;;;;;;37.35;19.60;;;;;;;20.25;66.14;93782.91;5004501;28;20026;-74
2022/09/01 07:55:41;;;;;;;34.78;18.73;;;;;;;20.31;65.91;93769.81;5004354;28;20034;-74
2022/09/01 07:58:07;;;;;;;34.75;21.40;;;;;;;20.44;64.66;93768.38;5004199;28;20133;-75
2022/09/01 08:00:33;;;;;;;30.08;19.10;;;;;;;20.55;64.72;93771.91;5004407;28;20286;-74
2022/09/01 08:02:58;;;;;;;34.80;18.38;;;;;;;20.57;64.53;93788.53;5004134;28;20037;-74
2022/09/01 08:05:25;;;;;;;32.03;18.60;;;;;;;20.59;64.34;93785.50;5004544;28;20046;-78
2022/09/01 08:07:52;;;;;;;37.22;18.75;;;;;;;20.66;63.60;93776.63;5004268;28;20321;-77
2022/09/01 08:10:18;;;;;;;39.53;20.20;;;;;;;20.60;64.05;93773.53;5004253;28;20030;-76
2022/09/01 08:12:43;;;;;;;40.40;20.33;;;;;;;20.66;63.57;93777.44;5004192;28;20273;-74
2022/09/01 08:15:11;;;;;;;35.22;20.08;;;;;;;20.73;63.53;93776.69;5003978;28;20030;-77
2022/09/01 08:17:37;;;;;;;26.58;18.38;;;;;;;20.81;64.05;93770.91;5003959;28;20026;-75
2022/09/01 08:20:07;;;;;;;29.73;19.98;;;;;;;20.82;63.72;93772.47;5003976;28;20029;-74
2022/09/01 08:22:33;;;;;;;36.45;20.77;;;;;;;20.70;63.94;93775.50;5003623;28;20046;-74
2022/09/01 08:24:58;;;;;;;36.35;18.67;;;;;;;20.75;63.48;93774.38;5003743;28;20301;-75
2022/09/01 08:27:23;;;;;;;33.58;20.38;;;;;;;20.89;63.30;93777.13;5003952;28;20037;-75
2022/09/01 08:29:49;;;;;;;40.42;22.40;;;;;;;21.01;62.78;93767.91;5003910;28;20088;-78
2022/09/01 08:32:14;;;;;;;36.45;20.13;;;;;;;21.13;62.82;93764.84;5004583;28;20081;-80
2022/09/01 08:34:42;;;;;;;32.25;20.02;;;;;;;21.19;62.62;93760.63;5004043;28;20030;-84
2022/09/01 08:37:07;;;;;;;38.80;21.65;;;;;;;21.29;61.56;93759.09;5004818;28;20029;-80
2022/09/01 08:39:33;;;;;;;37.45;21.58;;;;;;;21.37;61.42;93766.09;5004330;28;20023;-79
2022/09/01 08:42:14;;;;;;;36.25;21.40;;;;;;;21.52;60.50;93766.16;5003480;28;20033;-76
2022/09/01 08:45:02;;;;;;;37.90;21.60;;;;;;;21.51;60.29;93753.72;5003555;28;20221;-74
2022/09/01 08:47:30;;;;;;;35.70;20.15;;;;;;;21.47;61.34;93758.38;5003375;28;20095;-74
2022/09/01 08:49:56;;;;;;;33.70;19.88;;;;;;;21.58;60.45;93754.53;5003768;28;20038;-73
2022/09/01 08:52:35;;;;;;;39.38;20.42;;;;;;;21.64;60.81;93754.94;5002922;28;20077;-74
2022/09/01 08:55:09;;;;;;;41.45;20.42;;;;;;;21.69;59.50;93749.09;5003353;28;20041;-74
2022/09/01 08:57:38;;;;;;;36.33;19.95;;;;;;;21.73;59.72;93749.13;5003528;28;20030;-74
2022/09/01 09:00:10;;;;;;;28.65;19.08;;;;;;;21.80;60.00;93741.00;5003529;28;20022;-74
2022/09/01 09:02:45;;;;;;;34.58;18.77;;;;;;;21.96;59.77;93740.59;5003283;28;20034;-74
2022/09/01 09:05:29;;;;;;;38.30;19.85;;;;;;;22.08;59.12;93732.03;5003323;28;20068;-74
2022/09/01 09:08:15;;;;;;;27.42;16.55;;;;;;;22.24;59.09;93729.72;5003248;28;20026;-77
2022/09/01 09:10:48;;;;;;;31.00;18.58;;;;;;;22.35;57.63;93731.69;5003473;28;20022;-78
2022/09/01 09:13:35;;;;;;;29.63;18.90;;;;;;;22.42;56.78;93731.66;5003375;28;20089;-77
2022/09/01 09:16:24;;;;;;;33.95;17.80;;;;;;;22.59;56.30;93730.84;5003265;28;20030;-76
2022/09/01 09:18:58;;;;;;;26.67;16.60;;;;;;;22.74;56.04;93728.06;5003190;28;20026;-76
2022/09/01 09:21:47;;;;;;;28.10;16.48;;;;;;;22.83;55.67;93723.75;5003269;28;20041;-76
2022/09/01 09:24:54;;;;;;;28.13;16.17;;;;;;;22.95;56.15;93725.25;5002037;28;20050;-76
2022/09/01 09:27:26;;;;;;;21.45;15.02;;;;;;;23.10;56.71;93727.94;5003349;28;20026;-76
2022/09/01 09:29:53;;;;;;;;;;;;;;;23.25;55.03;93731.38;5003589;28;20033;-76
2022/09/01 09:32:20;;;;;;;32.35;15.43;;;;;;;23.37;54.94;93728.97;5003104;28;19906;-76
2022/09/01 09:34:46;;;;;;;23.17;14.00;;;;;;;23.49;51.37;93716.06;5003154;28;20038;-76
2022/09/01 09:37:22;;;;;;;32.30;15.60;;;;;;;23.57;53.64;93723.78;5018201;28;20022;-77
2022/09/01 09:40:08;;;;;;;29.30;15.50;;;;;;;23.62;53.75;93717.16;5003067;28;20030;-78
2022/09/01 09:42:35;;;;;;;27.02;15.50;;;;;;;23.66;53.55;93715.19;5002978;28;20025;-77
2022/09/01 09:45:03;;;;;;;22.95;15.15;;;;;;;23.80;53.54;93712.38;5002966;28;20045;-77
2022/09/01 09:47:33;;;;;;;27.65;15.02;;;;;;;23.92;51.94;93710.34;5002816;28;20050;-75
2022/09/01 09:50:37;;;;;;;19.13;13.70;;;;;;;24.03;52.63;93711.03;5002940;28;20026;-75
2022/09/01 09:53:15;;;;;;;25.52;15.35;;;;;;;24.11;51.34;93715.22;5005570;28;20321;-75
2022/09/01 09:55:59;;;;;;;30.00;13.13;;;;;;;24.12;54.01;93714.06;5002644;28;20033;-75
2022/09/01 09:58:33;;;;;;;25.30;14.50;;;;;;;24.03;54.52;93711.78;5002872;28;20022;-75
2022/09/01 10:01:02;;;;;;;25.30;14.02;;;;;;;24.08;52.97;93712.53;5003050;28;20069;-74
2022/09/01 10:03:41;;;;;;;24.27;14.85;;;;;;;24.08;52.02;93713.31;5002677;28;20272;-75
2022/09/01 10:06:10;;;;;;;31.52;14.65;;;;;;;24.09;51.14;93703.19;5006731;28;20436;-75
2022/09/01 10:08:43;;;;;;;19.65;12.38;;;;;;;24.16;51.61;93706.63;5006700;28;20048;-75
2022/09/01 10:11:12;;;;;;;24.38;13.07;;;;;;;24.18;51.98;93704.28;5006510;28;20022;-74
2022/09/01 10:13:38;;;;;;;25.88;13.15;;;;;;;24.27;51.85;93703.03;5006503;28;20018;-75
2022/09/01 10:16:14;;;;;;;19.80;12.32;;;;;;;24.31;51.56;93703.78;5006149;28;20104;-76
2022/09/01 10:18:43;;;;;;;18.33;12.35;;;;;;;24.32;51.36;93702.59;5006602;28;20102;-75
2022/09/01 10:21:09;;;;;;;23.55;13.10;;;;;;;24.35;51.13;93701.78;5006304;28;20052;-76
2022/09/01 10:23:36;;;;;;;23.65;12.32;;;;;;;24.34;52.05;93698.31;5006266;28;20037;-75
2022/09/01 10:26:16;;;;;;;29.25;13.50;;;;;;;24.31;52.34;93696.38;5006351;28;20313;-76
2022/09/01 10:28:59;;;;;;;23.83;14.07;;;;;;;24.29;52.35;93708.84;5006042;28;20094;-74
2022/09/01 10:31:24;;;;;;;22.80;12.93;;;;;;;24.23;52.09;93703.84;5006123;28;20034;-76
2022/09/01 10:33:50;;;;;;;21.30;13.25;;;;;;;24.17;51.89;93689.09;5005928;28;20098;-77
2022/09/01 10:36:18;;;;;;;27.45;11.48;;;;;;;24.17;52.51;93694.56;5006209;28;20299;-72
2022/09/01 10:38:44;;;;;;;20.98;12.23;;;;;;;24.15;53.07;93691.47;5006169;28;20052;-73
2022/09/01 10:41:42;;;;;;;29.25;11.75;;;;;;;24.13;52.99;93691.09;5006001;28;20030;-73
2022/09/01 10:44:10;;;;;;;26.77;11.85;;;;;;;24.12;52.35;93684.13;5006008;28;20109;-73
2022/09/01 10:46:35;;;;;;;21.55;11.85;;;;;;;24.11;53.82;93684.50;5005854;28;20042;-72
2022/09/01 10:49:01;;;;;;;26.08;11.40;;;;;;;24.13;51.89;93687.59;5005768;28;20064;-71
2022/09/01 10:51:26;;;;;;;25.15;12.48;;;;;;;24.19;52.42;93686.75;5005833;28;20081;-73
2022/09/01 10:53:59;;;;;;;26.17;12.63;;;;;;;24.30;52.41;93677.69;5005639;28;20022;-72
2022/09/01 10:56:39;;;;;;;22.38;11.55;;;;;;;24.41;52.36;93681.88;5005693;28;20026;-74
2022/09/01 10:59:25;;;;;;;23.17;13.13;;;;;;;24.58;51.55;93685.59;5005580;28;20101;-73
2022/09/01 11:01:51;;;;;;;30.60;12.60;;;;;;;24.78;51.60;93677.56;5005728;28;20061;-73
2022/09/01 11:04:43;;;;;;;24.10;12.25;;;;;;;24.99;51.26;93673.03;5005571;28;20042;-73
2022/09/01 11:07:17;;;;;;;17.92;12.25;;;;;;;25.23;50.95;93673.91;5012215;28;20038;-73
2022/09/01 11:10:06;;;;;;;22.45;12.20;;;;;;;25.47;49.22;93668.53;5005470;28;20035;-73
2022/09/01 11:12:44;;;;;;;18.70;11.13;;;;;;;25.63;48.03;93663.19;5007444;28;20086;-73
2022/09/01 11:15:12;;;;;;;21.70;11.88;;;;;;;25.88;48.32;93665.50;5005246;28;20053;-72
2022/09/01 11:17:55;;;;;;;18.27;10.52;;;;;;;26.13;48.33;93661.59;5005079;28;20026;-73
2022/09/01 11:20:37;;;;;;;23.35;10.95;;;;;;;26.38;46.12;93661.19;5005131;28;20304;-73
2022/09/01 11:23:24;;;;;;;23.48;10.60;;;;;;;26.63;44.84;93654.47;5005319;28;20029;-75
2022/09/01 11:25:57;;;;;;;14.65;9.57;;;;;;;26.78;43.69;93655.72;5005099;28;20355;-73
2022/09/01 11:28:22;;;;;;;24.85;10.50;;;;;;;26.91;43.90;93651.16;5005125;28;20033;-74
2022/09/01 11:31:02;;;;;;;17.33;10.05;;;;;;;27.06;42.69;93642.66;5005104;28;20026;-73
2022/09/01 11:34:00;;;;;;;19.33;9.23;;;;;;;27.05;42.11;93643.84;5004833;28;20042;-73
2022/09/01 11:36:31;;;;;;;17.25;8.95;;;;;;;27.20;40.63;93642.34;5003633;28;20042;-73